Time;durP1;ratioP1;P1;durP2;ratioP2;P2;SDS_P1;SDS_P2;PMS_P1;PMS_P2;Temp;Humidity;BMP_temperature;BMP_pressure;BME280_temperature;BME280_humidity;BME280_pressure;Samples;Min_cycle;Max_cycle;Signal;HPM_P1;HPM_P2
2023/03/01 00:01:15;;;;;;;0.30;0.30;;;;;;;8.09;46.35;103299.13;5030041;28;20048;-69
2023/03/01 00:03:41;;;;;;;;;;;;;;;8.34;45.96;103303.78;5030738;28;20121;-68
2023/03/01 00:06:06;;;;;;;0.40;0.40;;;;;;;7.98;45.04;103305.50;5031436;28;19948;-69
2023/03/01 00:08:33;;;;;;;0.30;0.30;;;;;;;7.97;45.77;103303.84;5032217;28;20029;-69
2023/03/01 00:11:08;;;;;;;0.40;0.40;;;;;;;7.86;47.43;103295.97;5030725;28;20038;-70
2023/03/01 00:13:34;;;;;;;0.40;0.40;;;;;;;7.78;46.65;103292.38;5031032;28;20107;-68
2023/03/01 00:16:05;;;;;;;0.30;0.30;;;;;;;7.42;46.78;103298.53;5030422;28;20045;-68
2023/03/01 00:18:30;;;;;;;0.30;0.30;;;;;;;7.58;47.21;103294.25;5031341;28;20030;-70
2023/03/01 00:20:56;;;;;;;0.30;0.30;;;;;;;7.43;47.58;103293.03;5030802;28;20045;-69
2023/03/01 00:23:22;;;;;;;0.30;0.30;;;;;;;7.35;46.88;103276.84;5026700;28;20033;-69
2023/03/01 00:25:48;;;;;;;0.40;0.40;;;;;;;7.40;46.63;103290.66;5028665;28;20039;-68
2023/03/01 00:28:14;;;;;;;0.33;0.33;;;;;;;7.22;47.57;103287.03;5031280;28;20473;-68
2023/03/01 00:30:39;;;;;;;0.40;0.40;;;;;;;7.24;46.96;103285.03;5032184;28;20044;-69
2023/03/01 00:33:05;;;;;;;0.37;0.37;;;;;;;7.21;48.09;103282.69;5032678;28;20029;-68
2023/03/01 00:35:32;;;;;;;0.30;0.30;;;;;;;7.24;46.58;103278.84;5032772;28;20029;-69
2023/03/01 00:37:57;;;;;;;0.30;0.30;;;;;;;7.28;47.41;103267.72;5032285;28;20025;-68
2023/03/01 00:40:24;;;;;;;0.40;0.40;;;;;;;7.21;47.84;103274.66;5032062;28;20561;-69
2023/03/01 00:42:50;;;;;;;0.30;0.30;;;;;;;6.91;49.06;103275.69;5032416;28;20634;-69
2023/03/01 00:45:15;;;;;;;0.30;0.30;;;;;;;7.08;48.39;103276.75;5031915;28;20037;-69
2023/03/01 00:47:41;;;;;;;0.30;0.30;;;;;;;7.16;48.38;103270.69;5032258;28;20113;-66
2023/03/01 00:50:07;;;;;;;0.40;0.40;;;;;;;7.21;48.67;103271.97;5032594;28;20487;-68
2023/03/01 00:52:32;;;;;;;0.40;0.40;;;;;;;7.33;48.08;103264.63;5032263;28;20057;-69
2023/03/01 00:54:57;;;;;;;0.40;0.40;;;;;;;7.19;47.57;103268.59;5031510;28;20052;-69
2023/03/01 00:57:23;;;;;;;0.30;0.30;;;;;;;7.17;46.77;103272.41;5031701;28;20084;-69
2023/03/01 00:59:48;;;;;;;0.30;0.30;;;;;;;7.13;47.28;103266.50;5029612;28;20036;-69
2023/03/01 01:02:14;;;;;;;0.30;0.30;;;;;;;7.15;48.77;103263.69;5032408;28;20026;-68
2023/03/01 01:04:39;;;;;;;0.30;0.30;;;;;;;7.17;47.17;103267.06;5032057;28;20038;-68
2023/03/01 01:07:05;;;;;;;0.40;0.40;;;;;;;6.85;48.33;103260.22;5032280;28;20029;-68
2023/03/01 01:09:30;;;;;;;0.43;0.43;;;;;;;6.95;48.41;103257.53;5031746;28;20030;-69
2023/03/01 01:11:56;;;;;;;0.37;0.37;;;;;;;6.98;47.92;103265.25;5031811;28;20036;-70
2023/03/01 01:14:21;;;;;;;0.40;0.40;;;;;;;7.03;48.44;103263.00;5032538;28;20061;-68
2023/03/01 01:16:46;;;;;;;0.30;0.30;;;;;;;6.99;47.45;103258.91;5031853;28;20398;-71
2023/03/01 01:19:13;;;;;;;0.40;0.40;;;;;;;7.03;48.43;103255.84;5034662;28;20039;-69
2023/03/01 01:21:38;;;;;;;0.40;0.40;;;;;;;7.03;47.43;103263.84;5032837;28;20429;-69
2023/03/01 01:24:04;;;;;;;0.30;0.30;;;;;;;6.89;47.72;103255.41;5031512;28;20125;-68
2023/03/01 01:26:33;;;;;;;0.30;0.30;;;;;;;6.83;49.02;103251.47;5032108;28;20035;-68
2023/03/01 01:28:59;;;;;;;0.33;0.33;;;;;;;6.79;48.51;103250.06;5032032;28;20894;-68
2023/03/01 01:31:26;;;;;;;0.40;0.40;;;;;;;6.80;47.82;103248.25;5031688;28;20120;-68
2023/03/01 01:33:52;;;;;;;0.30;0.30;;;;;;;6.77;48.78;103245.84;5031649;28;20498;-69
2023/03/01 01:36:18;;;;;;;0.33;0.33;;;;;;;6.82;48.05;103240.94;5032141;28;20036;-69
2023/03/01 01:38:44;;;;;;;0.40;0.40;;;;;;;6.68;48.25;103233.34;5030453;28;20029;-68
2023/03/01 01:41:11;;;;;;;0.40;0.40;;;;;;;6.50;49.18;103245.72;5032174;28;20026;-68
2023/03/01 01:43:43;;;;;;;0.40;0.40;;;;;;;6.85;48.81;103235.31;5031753;28;20087;-68
2023/03/01 01:46:31;;;;;;;0.20;0.20;;;;;;;6.98;49.25;103235.84;5032044;28;20048;-69
2023/03/01 01:49:01;;;;;;;0.30;0.30;;;;;;;6.68;49.03;103228.81;5032018;28;20045;-68
2023/03/01 01:51:38;;;;;;;0.30;0.30;;;;;;;6.80;48.29;103232.22;5031669;28;20398;-68
2023/03/01 01:54:08;;;;;;;0.30;0.30;;;;;;;6.79;48.36;103227.84;5012269;28;20389;-68
2023/03/01 01:56:37;;;;;;;0.40;0.40;;;;;;;6.72;48.48;103221.41;5020522;28;20045;-68
2023/03/01 01:59:02;;;;;;;0.30;0.30;;;;;;;6.63;49.04;103223.09;5031786;28;20108;-67
2023/03/01 02:01:27;;;;;;;0.40;0.40;;;;;;;6.68;48.32;103225.34;5031806;28;20057;-69
2023/03/01 02:03:53;;;;;;;0.40;0.40;;;;;;;6.61;48.31;103221.53;5031602;28;20037;-69
2023/03/01 02:06:29;;;;;;;0.40;0.40;;;;;;;6.64;49.73;103216.78;5031627;28;20034;-67
2023/03/01 02:09:00;;;;;;;0.40;0.40;;;;;;;6.49;49.01;103215.47;5031685;28;20034;-68
2023/03/01 02:11:26;;;;;;;0.40;0.40;;;;;;;6.55;48.92;103217.59;5032264;28;20053;-68
2023/03/01 02:13:54;;;;;;;0.50;0.50;;;;;;;6.56;48.89;103218.44;5031524;28;20041;-68
2023/03/01 02:16:20;;;;;;;0.40;0.40;;;;;;;6.36;49.95;103220.28;5031792;28;20037;-69
2023/03/01 02:18:46;;;;;;;0.40;0.40;;;;;;;6.57;49.32;103212.97;5031417;28;20033;-68
2023/03/01 02:21:28;;;;;;;0.40;0.40;;;;;;;6.90;49.11;103212.50;5031404;28;20604;-70
2023/03/01 02:23:57;;;;;;;0.30;0.30;;;;;;;6.73;48.94;103215.91;5031867;28;20044;-68
2023/03/01 02:26:50;;;;;;;0.40;0.40;;;;;;;6.89;48.26;103210.84;5036211;28;20446;-68
2023/03/01 02:29:15;;;;;;;0.40;0.40;;;;;;;6.65;48.46;103217.59;5035222;28;20056;-68
2023/03/01 02:31:41;;;;;;;0.40;0.40;;;;;;;6.73;48.36;103209.72;5035333;28;20037;-68
2023/03/01 02:34:10;;;;;;;0.40;0.40;;;;;;;6.68;47.94;103222.66;5035424;28;20522;-67
2023/03/01 02:36:42;;;;;;;0.30;0.30;;;;;;;6.67;48.20;103211.13;5035693;28;20044;-68
2023/03/01 02:39:14;;;;;;;0.40;0.40;;;;;;;6.66;48.11;103209.44;5035258;28;20111;-68
2023/03/01 02:42:01;;;;;;;0.47;0.47;;;;;;;6.89;47.96;103205.50;5035884;28;20438;-68
2023/03/01 02:44:26;;;;;;;0.37;0.37;;;;;;;6.46;48.16;103207.78;5035126;28;20049;-68
2023/03/01 02:46:55;;;;;;;0.40;0.40;;;;;;;6.64;47.98;103198.06;5035215;28;20040;-69
2023/03/01 02:49:31;;;;;;;0.33;0.33;;;;;;;6.58;47.30;103195.97;5035082;28;20526;-68
2023/03/01 02:52:30;;;;;;;0.40;0.40;;;;;;;6.04;49.25;103185.81;5034845;28;20088;-68
2023/03/01 02:55:10;;;;;;;0.40;0.40;;;;;;;5.79;51.27;103188.97;5034963;28;20044;-68
2023/03/01 02:57:39;;;;;;;0.40;0.40;;;;;;;5.72;50.16;103184.31;5034872;28;20041;-69
2023/03/01 03:00:34;;;;;;;0.40;0.40;;;;;;;5.82;50.53;103172.66;5034872;28;20053;-69
2023/03/01 03:02:59;;;;;;;0.40;0.40;;;;;;;5.67;50.66;103178.53;5012310;28;20041;-68
2023/03/01 03:05:30;;;;;;;0.40;0.40;;;;;;;5.65;50.39;103188.50;5012983;28;20157;-68
2023/03/01 03:07:56;;;;;;;0.30;0.30;;;;;;;5.57;50.58;103180.31;5012601;28;20034;-67
2023/03/01 03:10:28;;;;;;;0.50;0.50;;;;;;;5.52;51.46;103188.75;5012448;28;20086;-68
2023/03/01 03:12:59;;;;;;;0.30;0.30;;;;;;;5.61;50.56;103177.25;5012132;28;20038;-68
2023/03/01 03:15:26;;;;;;;0.40;0.40;;;;;;;5.58;49.92;103176.69;5011960;28;20128;-69
2023/03/01 03:17:52;;;;;;;0.30;0.30;;;;;;;5.41;51.52;103171.97;5012180;28;20069;-68
2023/03/01 03:20:21;;;;;;;0.50;0.50;;;;;;;5.52;50.86;103177.22;5012210;28;20030;-68
2023/03/01 03:22:49;;;;;;;0.40;0.40;;;;;;;5.44;50.94;103169.06;5011605;28;20121;-69
2023/03/01 03:25:15;;;;;;;0.40;0.40;;;;;;;5.48;50.97;103170.47;5010150;28;20034;-69
2023/03/01 03:27:42;;;;;;;0.40;0.40;;;;;;;5.45;50.78;103168.06;4991823;28;20041;-68
2023/03/01 03:30:09;;;;;;;0.40;0.40;;;;;;;5.38;51.35;103166.91;4991784;28;20517;-67
2023/03/01 03:32:36;;;;;;;0.40;0.40;;;;;;;5.38;51.03;103161.59;4991937;28;20034;-67
2023/03/01 03:35:09;;;;;;;0.30;0.30;;;;;;;5.38;50.72;103152.59;5012979;28;20037;-69
2023/03/01 03:43:39;;;;;;;0.30;0.30;;;;;;;5.22;51.84;103154.09;5010907;28;20065;-68
2023/03/01 03:46:05;;;;;;;0.23;0.23;;;;;;;5.28;51.83;103162.41;5010971;28;20546;-69
2023/03/01 03:48:35;;;;;;;0.40;0.40;;;;;;;5.30;52.45;103159.59;5011205;28;20053;-69
2023/03/01 03:51:01;;;;;;;0.30;0.30;;;;;;;5.33;52.31;103161.97;5011627;28;20030;-69
2023/03/01 03:53:28;;;;;;;0.40;0.40;;;;;;;5.28;52.20;103170.41;5012184;28;20201;-67
2023/03/01 03:55:54;;;;;;;0.40;0.40;;;;;;;5.36;52.16;103175.06;5011441;28;20034;-68
2023/03/01 03:58:21;;;;;;;0.40;0.40;;;;;;;5.27;52.64;103163.38;5011496;28;20524;-69
2023/03/01 04:00:52;;;;;;;0.53;0.53;;;;;;;5.18;52.34;103166.00;5011471;28;20030;-68
2023/03/01 04:03:19;;;;;;;0.30;0.30;;;;;;;5.29;51.49;103160.56;5011332;28;20494;-68
2023/03/01 04:05:46;;;;;;;0.40;0.40;;;;;;;5.30;51.40;103159.59;5011465;28;20425;-67
2023/03/01 04:08:12;;;;;;;0.40;0.40;;;;;;;5.12;51.55;103162.03;5011741;28;20045;-69
2023/03/01 04:10:43;;;;;;;0.40;0.40;;;;;;;5.26;50.70;103164.38;5011245;28;20441;-68
2023/03/01 04:13:13;;;;;;;0.50;0.50;;;;;;;5.30;51.53;103167.59;5010927;28;20041;-68
2023/03/01 04:15:40;;;;;;;0.43;0.43;;;;;;;5.31;51.22;103163.94;5011177;28;20037;-68
2023/03/01 04:18:06;;;;;;;0.50;0.50;;;;;;;5.26;50.91;103169.69;5029346;28;20439;-67
2023/03/01 04:20:34;;;;;;;0.40;0.40;;;;;;;5.24;51.22;103176.13;5033714;28;20107;-68
2023/03/01 04:23:19;;;;;;;0.50;0.50;;;;;;;5.23;51.38;103169.94;5033133;28;20065;-69
2023/03/01 04:25:49;;;;;;;0.40;0.40;;;;;;;5.20;51.26;103161.38;5033420;28;20045;-68
2023/03/01 04:28:14;;;;;;;0.40;0.40;;;;;;;5.14;50.97;103164.56;5033281;28;20041;-67
2023/03/01 04:30:41;;;;;;;0.50;0.50;;;;;;;5.16;50.70;103171.47;5033149;28;20044;-69
2023/03/01 04:33:08;;;;;;;0.50;0.50;;;;;;;5.06;51.73;103165.25;5033030;28;20038;-67
2023/03/01 04:35:35;;;;;;;0.50;0.50;;;;;;;5.04;51.50;103167.19;5033235;28;20029;-68
2023/03/01 04:38:01;;;;;;;0.40;0.40;;;;;;;5.03;51.95;103154.00;5033067;28;20474;-68
2023/03/01 04:40:27;;;;;;;0.50;0.50;;;;;;;5.01;51.31;103163.97;5033071;28;20038;-69
2023/03/01 04:42:52;;;;;;;0.50;0.50;;;;;;;4.97;51.34;103162.53;5032596;28;20504;-68
2023/03/01 04:45:17;;;;;;;0.40;0.40;;;;;;;5.01;51.80;103155.97;5032964;28;20125;-68
2023/03/01 04:47:45;;;;;;;0.30;0.30;;;;;;;4.86;52.94;103158.13;5032430;28;20033;-68
2023/03/01 04:50:12;;;;;;;0.33;0.33;;;;;;;4.94;52.43;103152.13;5033347;28;20025;-67
2023/03/01 04:52:38;;;;;;;0.40;0.40;;;;;;;4.97;52.24;103138.56;5032642;28;20060;-68
2023/03/01 04:55:04;;;;;;;0.40;0.40;;;;;;;5.01;51.24;103139.97;5032817;28;20423;-67
2023/03/01 04:57:49;;;;;;;0.50;0.50;;;;;;;5.27;51.03;103130.53;5032661;28;20034;-67
2023/03/01 05:00:21;;;;;;;0.40;0.40;;;;;;;4.98;51.01;103121.56;5032550;28;20386;-68
2023/03/01 05:02:54;;;;;;;0.40;0.40;;;;;;;5.06;52.06;103124.41;5031578;28;20053;-68
2023/03/01 05:05:30;;;;;;;0.43;0.43;;;;;;;5.07;50.67;103128.78;5023416;28;20025;-69
2023/03/01 05:07:57;;;;;;;0.40;0.40;;;;;;;4.94;51.51;103117.50;5032206;28;20034;-67
2023/03/01 05:10:25;;;;;;;0.40;0.40;;;;;;;4.86;52.33;103119.97;5031992;28;20042;-67
2023/03/01 05:12:52;;;;;;;0.30;0.30;;;;;;;4.91;51.32;103118.63;5031462;28;20478;-68
2023/03/01 05:15:17;;;;;;;0.30;0.30;;;;;;;4.93;52.06;103116.66;5031864;28;20248;-68
2023/03/01 05:17:43;;;;;;;0.40;0.40;;;;;;;4.91;52.17;103109.78;5031955;28;20146;-69
2023/03/01 05:20:10;;;;;;;0.50;0.50;;;;;;;4.89;51.76;103114.38;5032216;28;20036;-68
2023/03/01 05:22:35;;;;;;;0.30;0.30;;;;;;;4.79;52.21;103109.03;5031998;28;20577;-67
2023/03/01 05:25:01;;;;;;;0.50;0.50;;;;;;;4.82;52.56;103113.22;5030673;28;20125;-67
2023/03/01 05:27:27;;;;;;;0.40;0.40;;;;;;;4.78;52.35;103101.13;5031595;28;20037;-68
2023/03/01 05:29:52;;;;;;;0.40;0.40;;;;;;;4.81;52.32;103106.22;5031904;28;20124;-70
2023/03/01 05:32:17;;;;;;;0.40;0.40;;;;;;;4.82;53.19;103103.41;5032109;28;20021;-67
2023/03/01 05:34:46;;;;;;;0.47;0.47;;;;;;;4.84;52.83;103097.94;5031695;28;20045;-66
2023/03/01 05:37:11;;;;;;;0.50;0.50;;;;;;;4.75;52.68;103104.94;5032049;28;20124;-69
2023/03/01 05:39:37;;;;;;;0.40;0.40;;;;;;;4.80;52.55;103099.19;5031913;28;20128;-68
2023/03/01 05:42:11;;;;;;;0.40;0.40;;;;;;;4.88;51.91;103100.22;5031860;28;20112;-68
2023/03/01 05:44:37;;;;;;;0.30;0.30;;;;;;;4.61;53.19;103096.44;5032621;28;20036;-68
2023/03/01 05:47:02;;;;;;;0.40;0.40;;;;;;;4.56;52.80;103090.66;5031874;28;20037;-68
2023/03/01 05:49:28;;;;;;;0.47;0.47;;;;;;;4.67;53.00;103086.09;5031763;28;20047;-67
2023/03/01 05:51:55;;;;;;;0.40;0.40;;;;;;;4.63;53.52;103079.34;5030205;28;20116;-68
2023/03/01 05:54:21;;;;;;;0.53;0.53;;;;;;;4.74;53.41;103081.06;5031776;28;20068;-66
2023/03/01 05:56:47;;;;;;;0.50;0.50;;;;;;;4.60;54.52;103078.78;5031564;28;20033;-69
2023/03/01 05:59:13;;;;;;;0.40;0.40;;;;;;;4.55;53.67;103079.16;5032871;28;20026;-67
2023/03/01 06:01:39;;;;;;;0.50;0.50;;;;;;;4.61;53.36;103080.44;5036078;28;20034;-69
2023/03/01 06:04:05;;;;;;;0.47;0.47;;;;;;;4.69;52.54;103092.16;5035622;28;20042;-66
2023/03/01 06:06:34;;;;;;;0.67;0.67;;;;;;;4.68;53.17;103095.75;5035658;28;20060;-68
2023/03/01 06:09:00;;;;;;;0.50;0.50;;;;;;;4.51;53.31;103093.72;5035776;28;20096;-68
2023/03/01 06:11:25;;;;;;;0.40;0.40;;;;;;;4.54;52.97;103090.78;5035930;28;20025;-68
2023/03/01 06:13:50;;;;;;;0.40;0.40;;;;;;;4.52;52.95;103089.22;5035178;28;20033;-69
2023/03/01 06:16:16;;;;;;;0.47;0.47;;;;;;;4.48;52.89;103089.47;5035368;28;20052;-68
2023/03/01 06:18:41;;;;;;;0.30;0.30;;;;;;;4.46;53.45;103080.78;5035466;28;20038;-67
2023/03/01 06:21:08;;;;;;;0.47;0.47;;;;;;;4.44;53.07;103084.56;5034944;28;20448;-67
2023/03/01 06:23:34;;;;;;;0.33;0.33;;;;;;;4.43;53.81;103086.38;5035219;28;20116;-68
2023/03/01 06:25:59;;;;;;;0.40;0.40;;;;;;;4.37;53.29;103084.25;5034918;28;20168;-69
2023/03/01 06:28:25;;;;;;;0.33;0.33;;;;;;;4.30;53.18;103085.72;5034983;28;20477;-67
2023/03/01 06:30:51;;;;;;;0.40;0.40;;;;;;;4.25;53.80;103087.06;5035235;28;20103;-67
2023/03/01 06:33:19;;;;;;;0.50;0.50;;;;;;;4.36;53.48;103087.03;5035101;28;20040;-68
2023/03/01 06:35:44;;;;;;;0.40;0.40;;;;;;;4.43;52.24;103090.84;5034550;28;20033;-69
2023/03/01 06:38:09;;;;;;;0.40;0.40;;;;;;;4.47;52.21;103087.81;5035268;28;20040;-70
2023/03/01 06:40:35;;;;;;;0.50;0.50;;;;;;;4.41;52.58;103087.47;5034786;28;20136;-67
2023/03/01 06:43:00;;;;;;;0.40;0.40;;;;;;;4.49;52.36;103095.66;5034419;28;20167;-67
2023/03/01 06:45:26;;;;;;;0.40;0.40;;;;;;;4.45;51.52;103096.88;5034445;28;20491;-68
2023/03/01 06:47:51;;;;;;;0.40;0.40;;;;;;;4.48;51.76;103093.97;5034308;28;20103;-68
2023/03/01 06:50:17;;;;;;;0.40;0.40;;;;;;;4.49;52.36;103093.00;5034780;28;20454;-68
2023/03/01 06:52:44;;;;;;;0.40;0.40;;;;;;;4.65;51.27;103100.50;5034247;28;20087;-69
2023/03/01 06:55:11;;;;;;;0.50;0.50;;;;;;;4.68;50.69;103102.94;5031853;28;20042;-67
2023/03/01 06:57:36;;;;;;;0.40;0.40;;;;;;;4.78;52.06;103114.44;5034605;28;20045;-69
2023/03/01 07:00:04;;;;;;;0.40;0.40;;;;;;;4.78;51.72;103115.31;5034284;28;20045;-69
2023/03/01 07:02:29;;;;;;;0.50;0.50;;;;;;;4.93;51.85;103113.16;5034975;28;20030;-69
2023/03/01 07:04:54;;;;;;;0.40;0.40;;;;;;;4.99;52.44;103110.78;5034582;28;20083;-67
2023/03/01 07:07:20;;;;;;;0.40;0.40;;;;;;;5.06;51.70;103098.63;5034565;28;20482;-68
2023/03/01 07:09:46;;;;;;;0.40;0.40;;;;;;;4.91;54.21;103110.63;5034373;28;20055;-69
2023/03/01 07:12:11;;;;;;;0.40;0.40;;;;;;;5.14;53.25;103105.94;5034431;28;20041;-69
2023/03/01 07:14:37;;;;;;;0.30;0.30;;;;;;;5.22;53.11;103098.97;5034835;28;20052;-67
2023/03/01 07:17:02;;;;;;;0.50;0.50;;;;;;;5.27;53.04;103107.41;5034079;28;20038;-68
2023/03/01 07:19:27;;;;;;;0.33;0.33;;;;;;;5.30;52.55;103104.47;5034185;28;20039;-68
2023/03/01 07:21:53;;;;;;;0.40;0.40;;;;;;;5.38;53.20;103109.13;5033133;28;20100;-67
2023/03/01 07:24:19;;;;;;;0.40;0.40;;;;;;;5.41;53.28;103106.16;5031655;28;20111;-68
2023/03/01 07:26:47;;;;;;;0.40;0.40;;;;;;;5.71;52.79;103116.78;5032681;28;20051;-68
2023/03/01 07:29:13;;;;;;;0.50;0.50;;;;;;;5.59;53.61;103112.53;5033363;28;20134;-68
2023/03/01 07:31:38;;;;;;;0.40;0.40;;;;;;;5.65;53.77;103120.00;5032921;28;20072;-71
2023/03/01 07:34:03;;;;;;;0.40;0.40;;;;;;;5.79;53.03;103121.41;5033097;28;20072;-68
2023/03/01 07:36:29;;;;;;;0.40;0.40;;;;;;;5.79;52.62;103121.41;5033172;28;20045;-70
2023/03/01 07:38:55;;;;;;;0.40;0.40;;;;;;;5.78;54.11;103117.09;5032978;28;20029;-68
2023/03/01 07:41:21;;;;;;;0.50;0.50;;;;;;;5.90;53.09;103119.50;5033222;28;20021;-71
2023/03/01 07:43:46;;;;;;;0.30;0.30;;;;;;;6.00;52.88;103112.34;5032588;28;20080;-67
2023/03/01 07:46:12;;;;;;;0.40;0.40;;;;;;;6.11;53.19;103114.88;5032840;28;20033;-69
2023/03/01 07:48:37;;;;;;;0.30;0.30;;;;;;;6.07;53.42;103121.47;5032852;28;20092;-69
2023/03/01 07:51:04;;;;;;;0.40;0.40;;;;;;;6.19;52.43;103120.34;5032966;28;20108;-67
2023/03/01 07:53:31;;;;;;;0.50;0.50;;;;;;;6.33;52.61;103120.91;5029859;28;20065;-69
2023/03/01 07:56:07;;;;;;;0.30;0.30;;;;;;;6.43;52.88;103125.25;5027574;28;20113;-69
2023/03/01 07:58:37;;;;;;;0.30;0.30;;;;;;;6.47;52.90;103131.13;5030601;28;20069;-68
2023/03/01 08:01:08;;;;;;;0.60;0.60;;;;;;;6.70;52.04;103121.84;5030476;28;20046;-67
2023/03/01 08:03:35;;;;;;;0.30;0.30;;;;;;;6.71;53.22;103124.38;5030356;28;20049;-68
2023/03/01 08:06:01;;;;;;;0.30;0.30;;;;;;;6.62;53.37;103122.56;5030694;28;20049;-66
2023/03/01 08:08:28;;;;;;;0.40;0.40;;;;;;;7.10;52.57;103109.88;5029808;28;20478;-68
2023/03/01 08:10:57;;;;;;;0.30;0.30;;;;;;;7.08;52.92;103105.66;5029064;28;20088;-68
2023/03/01 08:13:22;;;;;;;0.30;0.30;;;;;;;6.92;52.65;103100.94;5030440;28;20489;-68
2023/03/01 08:15:49;;;;;;;0.30;0.30;;;;;;;7.17;52.75;103087.91;5037748;28;20029;-67
2023/03/01 08:18:15;;;;;;;0.40;0.40;;;;;;;7.11;53.03;103089.34;5050001;28;20037;-69
2023/03/01 08:20:40;;;;;;;0.30;0.30;;;;;;;7.39;52.31;103098.22;5050332;28;20078;-66
2023/03/01 08:23:06;;;;;;;0.30;0.30;;;;;;;7.38;51.95;103092.03;5000152;28;1172633;-67
2023/03/01 08:25:31;;;;;;;0.30;0.30;;;;;;;7.46;52.05;103086.78;5030851;28;20080;-68
2023/03/01 08:27:56;;;;;;;0.40;0.40;;;;;;;7.52;51.72;103088.00;5031297;28;20523;-68
2023/03/01 08:30:23;;;;;;;0.30;0.30;;;;;;;7.74;51.48;103080.38;5028833;28;20083;-68
2023/03/01 08:32:50;;;;;;;0.40;0.40;;;;;;;7.78;51.55;103081.75;5030414;28;20083;-68
2023/03/01 08:35:15;;;;;;;0.35;0.35;;;;;;;7.86;50.81;103076.47;5031147;28;20028;-70
2023/03/01 08:37:41;;;;;;;0.30;0.30;;;;;;;7.88;50.29;103071.00;5030224;28;20041;-68
2023/03/01 08:40:07;;;;;;;0.32;0.32;;;;;;;8.05;50.48;103078.16;5030348;28;20468;-67
2023/03/01 08:42:33;;;;;;;0.30;0.30;;;;;;;8.11;49.98;103082.06;5030682;28;20050;-70
2023/03/01 08:45:18;;;;;;;0.30;0.30;;;;;;;8.30;49.62;103082.75;5030059;28;20044;-70
2023/03/01 08:47:44;;;;;;;0.30;0.30;;;;;;;8.23;49.51;103086.19;5030145;28;20022;-68
2023/03/01 08:50:10;;;;;;;0.30;0.30;;;;;;;8.27;50.11;103082.25;5030556;28;20025;-69
2023/03/01 08:52:35;;;;;;;0.30;0.30;;;;;;;8.30;50.13;103081.91;5030221;28;20401;-68
2023/03/01 08:55:01;;;;;;;0.30;0.30;;;;;;;8.55;49.07;103070.41;5030045;28;20410;-68
2023/03/01 08:57:26;;;;;;;0.30;0.30;;;;;;;8.66;48.58;103068.28;5029679;28;20029;-69
2023/03/01 08:59:52;;;;;;;0.20;0.20;;;;;;;8.96;48.36;103076.84;5029286;28;20120;-69
2023/03/01 09:02:18;;;;;;;0.20;0.20;;;;;;;8.90;47.82;103066.75;5028983;28;20025;-69
2023/03/01 09:04:44;;;;;;;0.30;0.30;;;;;;;9.10;47.74;103073.56;5028861;28;20501;-68
2023/03/01 09:07:10;;;;;;;0.32;0.32;;;;;;;9.42;46.64;103079.88;5029473;28;20033;-69
2023/03/01 09:09:36;;;;;;;0.25;0.25;;;;;;;9.70;46.08;103077.75;5028569;28;20026;-68
2023/03/01 09:12:03;;;;;;;0.30;0.30;;;;;;;9.67;45.90;103081.59;5029208;28;20033;-69
2023/03/01 09:14:28;;;;;;;0.30;0.30;;;;;;;9.82;45.79;103070.22;5028525;28;20017;-64
2023/03/01 09:16:54;;;;;;;0.38;0.38;;;;;;;9.89;45.42;103074.75;5026993;28;20409;-68
2023/03/01 09:19:19;;;;;;;0.30;0.30;;;;;;;9.63;46.25;103074.06;5027597;28;20401;-65
2023/03/01 09:21:51;;;;;;;0.40;0.40;;;;;;;9.32;47.43;103068.44;5026941;28;20140;-66
2023/03/01 09:24:19;;;;;;;0.30;0.30;;;;;;;9.94;45.95;103074.28;5026814;28;20048;-65
2023/03/01 09:26:47;;;;;;;0.30;0.30;;;;;;;10.12;44.96;103075.81;5027395;28;20036;-67
2023/03/01 09:29:14;;;;;;;0.30;0.30;;;;;;;9.96;44.95;103061.53;5028103;28;20075;-66
2023/03/01 09:31:40;;;;;;;0.35;0.35;;;;;;;10.48;44.46;103058.34;5027228;28;20120;-67
2023/03/01 09:34:06;;;;;;;0.20;0.20;;;;;;;10.71;43.70;103053.09;5027258;28;20041;-66
2023/03/01 09:36:32;;;;;;;0.30;0.30;;;;;;;10.85;43.55;103052.34;5028878;28;20064;-66
2023/03/01 09:38:59;;;;;;;0.28;0.28;;;;;;;11.07;43.14;103048.06;5027942;28;20500;-66
2023/03/01 09:41:30;;;;;;;0.20;0.20;;;;;;;10.31;44.52;103054.00;5028825;28;20017;-65
2023/03/01 09:44:20;;;;;;;0.20;0.20;;;;;;;11.08;43.30;103058.69;5028634;28;20128;-66
2023/03/01 09:46:46;;;;;;;0.30;0.27;;;;;;;10.71;44.31;103049.56;5028305;28;20034;-66
2023/03/01 09:49:30;;;;;;;0.30;0.30;;;;;;;11.23;43.56;103043.47;5028371;28;20037;-66
2023/03/01 09:52:00;;;;;;;0.20;0.20;;;;;;;10.83;43.55;103040.13;5028027;28;20606;-65
2023/03/01 09:54:26;;;;;;;0.27;0.27;;;;;;;11.54;42.15;103030.00;5009023;28;20034;-67
2023/03/01 09:57:06;;;;;;;0.20;0.20;;;;;;;11.46;42.41;103041.66;5008664;28;20099;-69
2023/03/01 09:59:37;;;;;;;0.25;0.25;;;;;;;11.65;42.00;103024.22;5009317;28;20022;-68
2023/03/01 10:02:28;;;;;;;0.20;0.20;;;;;;;11.76;41.53;103037.28;5008881;28;20062;-69
2023/03/01 10:05:10;;;;;;;0.20;0.20;;;;;;;12.35;39.96;103024.81;5009524;28;20038;-69
2023/03/01 10:07:38;;;;;;;0.20;0.20;;;;;;;12.19;40.05;103024.97;5009071;28;20084;-68
2023/03/01 10:10:08;;;;;;;0.20;0.20;;;;;;;11.88;40.53;103025.06;5013091;28;20056;-69
2023/03/01 10:12:41;;;;;;;0.30;0.30;;;;;;;12.28;40.04;103015.81;5028901;28;20095;-69
2023/03/01 10:15:14;;;;;;;0.20;0.20;;;;;;;11.54;41.68;103018.41;5028205;28;20034;-68
2023/03/01 10:17:47;;;;;;;0.20;0.20;;;;;;;12.11;40.76;103022.34;5028295;28;20029;-68
2023/03/01 10:20:18;;;;;;;0.40;0.40;;;;;;;12.20;39.15;103008.66;5027917;28;20033;-68
2023/03/01 10:22:50;;;;;;;0.20;0.20;;;;;;;12.32;38.63;103011.72;5020318;28;20056;-69
2023/03/01 10:25:20;;;;;;;0.30;0.30;;;;;;;11.88;38.00;103019.69;5028105;28;20048;-69
2023/03/01 10:28:02;;;;;;;0.30;0.30;;;;;;;12.57;37.26;103012.28;5027383;28;20042;-68
2023/03/01 10:30:39;;;;;;;0.20;0.20;;;;;;;12.58;36.56;103016.69;5026091;28;20075;-69
2023/03/01 10:33:14;;;;;;;0.20;0.20;;;;;;;13.00;35.71;103011.44;5023330;28;20037;-68
2023/03/01 10:35:40;;;;;;;0.17;0.17;;;;;;;12.00;36.35;103015.56;5026810;28;20022;-68
2023/03/01 10:38:13;;;;;;;0.20;0.20;;;;;;;12.43;35.43;103008.56;5026192;28;20474;-69
2023/03/01 10:40:57;;;;;;;0.30;0.30;;;;;;;12.44;35.46;103010.25;5025697;28;20091;-67
2023/03/01 10:43:24;;;;;;;0.20;0.20;;;;;;;13.14;33.94;103008.75;5023686;28;20521;-70
2023/03/01 10:45:50;;;;;;;0.38;0.38;;;;;;;12.96;35.03;103002.88;5027540;28;20048;-68
2023/03/01 10:48:23;;;;;;;0.30;0.30;;;;;;;12.82;34.70;102994.78;5030021;28;20474;-69
2023/03/01 10:51:03;;;;;;;0.20;0.20;;;;;;;12.16;36.15;103001.94;5028438;28;20120;-71
2023/03/01 10:53:40;;;;;;;0.30;0.30;;;;;;;13.29;35.71;103000.63;5028644;28;20033;-69
2023/03/01 10:56:13;;;;;;;0.15;0.15;;;;;;;13.10;34.54;102995.81;5028176;28;20053;-68
2023/03/01 10:58:40;;;;;;;0.20;0.20;;;;;;;13.21;35.33;103000.72;5029630;28;20044;-69
2023/03/01 11:01:15;;;;;;;0.20;0.20;;;;;;;13.29;35.26;102997.91;5027114;28;20029;-67
2023/03/01 11:03:40;;;;;;;0.20;0.20;;;;;;;12.77;35.34;102992.69;5027216;28;20038;-67
2023/03/01 11:06:08;;;;;;;0.20;0.20;;;;;;;13.29;35.45;102994.41;5029766;28;20033;-69
2023/03/01 11:08:33;;;;;;;0.30;0.30;;;;;;;13.08;35.16;102984.38;5029453;28;20418;-68
2023/03/01 11:11:34;;;;;;;0.32;0.32;;;;;;;13.35;35.35;102978.25;5030042;28;20123;-67
2023/03/01 11:14:17;;;;;;;0.30;0.30;;;;;;;12.59;35.82;102978.72;5025202;28;20040;-68
2023/03/01 11:16:48;;;;;;;0.20;0.20;;;;;;;13.51;35.15;102963.66;5027197;28;20061;-67
2023/03/01 11:19:17;;;;;;;0.28;0.28;;;;;;;13.09;34.62;102965.28;5028254;28;20598;-67
2023/03/01 11:22:12;;;;;;;0.22;0.22;;;;;;;13.36;33.55;102965.59;5027787;28;20053;-67
2023/03/01 11:24:46;;;;;;;0.15;0.15;;;;;;;13.50;33.71;102960.16;5030030;28;20034;-69
2023/03/01 11:27:37;;;;;;;0.20;0.20;;;;;;;14.28;32.65;102962.69;5022008;28;20037;-67
2023/03/01 11:30:26;;;;;;;;;;;;;;;14.37;31.79;102947.97;4988101;28;20058;-69
2023/03/01 11:33:25;;;;;;;0.20;0.20;;;;;;;13.85;32.42;102966.50;4967010;28;19906;-69
2023/03/01 11:36:02;;;;;;;0.30;0.30;;;;;;;15.03;31.23;102954.56;4987264;28;20158;-70
2023/03/01 11:38:33;;;;;;;0.25;0.25;;;;;;;14.19;32.76;102958.41;4987678;28;20098;-68
2023/03/01 11:41:14;;;;;;;;;;;;;;;13.98;31.71;102961.19;4987495;28;20538;-69
2023/03/01 11:44:23;;;;;;;0.15;0.15;;;;;;;15.14;31.35;102963.94;4987499;28;20378;-68
2023/03/01 11:47:13;;;;;;;0.30;0.30;;;;;;;14.04;32.54;102950.44;4925245;29;20059;-68